Time;durP1;ratioP1;P1;durP2;ratioP2;P2;SDS_P1;SDS_P2;PMS_P1;PMS_P2;Temp;Humidity;BMP_temperature;BMP_pressure;BME280_temperature;BME280_humidity;BME280_pressure;Samples;Min_cycle;Max_cycle;Signal;HPM_P1;HPM_P2
2023/03/23 00:02:27;;;;;;;5.60;5.00;;;10.40;75.30;;;10.39;64.51;97363.69;5069209;28;20449;-66
2023/03/23 00:04:54;;;;;;;6.27;4.30;;;10.30;75.40;;;10.43;64.68;97374.88;5079581;28;20645;-65
2023/03/23 00:07:27;;;;;;;5.77;4.70;;;10.30;75.70;;;10.28;64.36;97361.75;5070342;28;21272;-68
2023/03/23 00:09:56;;;;;;;6.13;5.03;;;10.20;75.90;;;10.27;65.26;97365.53;5072764;28;20471;-66
2023/03/23 00:12:28;;;;;;;4.67;4.23;;;10.20;76.00;;;10.27;64.57;97371.72;5079976;28;20452;-66
2023/03/23 00:14:56;;;;;;;6.20;4.83;;;10.20;76.10;;;10.16;65.70;97370.63;5074700;28;20656;-68
2023/03/23 00:17:24;;;;;;;7.53;4.53;;;10.10;76.30;;;10.03;65.64;97349.22;5081523;28;20453;-66
2023/03/23 00:19:51;;;;;;;5.17;4.43;;;10.10;76.40;;;10.27;65.86;97360.13;5079748;28;20446;-67
2023/03/23 00:22:21;;;;;;;6.07;5.00;;;10.20;76.60;;;10.27;64.84;97358.22;5095811;28;20963;-66
2023/03/23 00:24:50;;;;;;;5.77;5.27;;;10.20;76.60;;;10.37;65.45;97365.75;5096632;28;20440;-67
2023/03/23 00:27:18;;;;;;;5.17;4.67;;;10.30;76.50;;;10.49;64.65;97352.34;5090239;28;20922;-68
2023/03/23 00:29:45;;;;;;;5.67;5.17;;;10.30;76.40;;;10.53;64.91;97345.41;5097349;28;20492;-66
2023/03/23 00:32:16;;;;;;;5.20;4.70;;;10.40;76.30;;;10.54;64.82;97348.94;5089765;28;20463;-65
2023/03/23 00:34:45;;;;;;;6.90;5.20;;;10.40;76.10;;;10.47;64.20;97330.97;5083814;28;20465;-68
2023/03/23 00:37:16;;;;;;;6.93;5.20;;;10.50;76.10;;;10.26;65.18;97342.28;5072677;28;22430;-67
2023/03/23 00:39:45;;;;;;;6.30;4.80;;;10.40;76.10;;;10.23;65.25;97329.22;5092749;28;20479;-67
2023/03/23 00:42:16;;;;;;;5.17;3.90;;;10.30;76.20;;;10.25;65.21;97325.25;5107640;28;20455;-66
2023/03/23 00:44:44;;;;;;;4.87;3.73;;;10.30;76.10;;;10.19;64.98;97324.28;5083028;28;20460;-67
2023/03/23 00:47:14;;;;;;;4.97;4.20;;;10.30;76.00;;;10.33;64.82;97299.78;5072139;28;20479;-70
2023/03/23 00:49:42;;;;;;;4.27;3.83;;;10.40;76.00;;;10.11;65.38;97292.22;5072718;28;20919;-69
2023/03/23 00:52:11;;;;;;;6.37;4.50;;;10.40;76.00;;;10.23;64.95;97315.72;5085802;28;20459;-67
2023/03/23 00:54:39;;;;;;;4.90;3.67;;;10.40;75.50;;;10.44;64.91;97317.09;5077248;28;20461;-69
2023/03/23 00:57:07;;;;;;;5.47;3.97;;;10.50;75.90;;;10.48;63.84;97313.69;5072978;28;20531;-66
2023/03/23 00:59:35;;;;;;;4.33;3.93;;;10.50;75.90;;;10.60;63.89;97323.72;5086470;28;20464;-68
2023/03/23 01:02:03;;;;;;;5.07;4.13;;;10.50;75.90;;;10.51;63.76;97325.09;5081766;28;20495;-66
2023/03/23 01:04:32;;;;;;;6.40;4.10;;;10.50;75.80;;;10.65;63.10;97337.34;5078218;28;20743;-69
2023/03/23 01:07:00;;;;;;;4.33;4.00;;;10.50;75.70;;;10.51;63.82;97333.19;5096387;27;20545;-66
2023/03/23 01:09:28;;;;;;;6.23;4.27;;;10.50;75.40;;;10.59;63.44;97336.38;5077818;28;20482;-68
2023/03/23 01:11:56;;;;;;;8.40;3.63;;;10.60;75.40;;;10.68;63.32;97327.94;5075420;28;20465;-66
2023/03/23 01:14:24;;;;;;;7.37;4.27;;;10.60;75.10;;;10.74;62.59;97325.13;5101810;27;20511;-67
2023/03/23 01:16:53;;;;;;;4.70;4.30;;;10.60;75.00;;;10.75;62.37;97318.69;5087546;28;20549;-67
2023/03/23 01:19:20;;;;;;;4.30;3.90;;;10.70;74.70;;;10.77;61.37;97327.38;5093069;28;20437;-67
2023/03/23 01:21:48;;;;;;;6.63;4.20;;;10.80;74.20;;;11.00;60.94;97314.09;5093930;28;20450;-67
2023/03/23 01:24:15;;;;;;;5.30;4.63;;;10.90;73.70;;;11.00;60.89;97319.50;5100785;28;20463;-66
2023/03/23 01:26:43;;;;;;;4.60;4.20;;;11.00;73.30;;;11.04;59.58;97313.41;5092784;28;20439;-68
2023/03/23 01:29:10;;;;;;;6.30;4.20;;;11.00;72.90;;;11.25;59.69;97310.34;5084747;28;20463;-66
2023/03/23 01:31:38;;;;;;;4.43;3.93;;;11.10;72.90;;;11.23;59.20;97307.84;5077045;28;20447;-67
2023/03/23 01:34:07;;;;;;;4.07;3.67;;;11.10;72.40;;;11.27;58.91;97295.50;5078276;28;20456;-64
2023/03/23 01:36:35;;;;;;;5.03;4.53;;;11.20;72.20;;;11.31;58.65;97283.16;5081414;28;20458;-65
2023/03/23 01:39:04;;;;;;;6.70;4.90;;;11.20;71.90;;;11.41;58.49;97300.66;5076306;28;20545;-65
2023/03/23 01:41:33;;;;;;;4.77;4.27;;;11.30;71.80;;;11.31;58.20;97299.38;5092807;27;20604;-67
2023/03/23 01:44:04;;;;;;;5.00;4.00;;;11.30;71.50;;;11.29;57.92;97316.91;5080459;28;20479;-67
2023/03/23 01:46:33;;;;;;;5.60;4.53;;;11.30;71.10;;;11.40;58.16;97302.53;5078596;28;20452;-69
2023/03/23 01:49:09;;;;;;;4.93;4.53;;;11.30;71.10;;;11.45;57.63;97299.13;5079041;28;20522;-66
2023/03/23 01:51:40;;;;;;;4.93;4.43;;;11.30;70.80;;;11.10;57.61;97235.09;5088279;28;20915;-67
2023/03/23 01:54:13;;;;;;;4.77;4.10;;;11.40;70.60;;;11.56;57.33;97300.16;5072093;28;20459;-66
2023/03/23 01:56:47;;;;;;;5.70;4.50;;;11.50;70.40;;;11.64;57.21;97290.84;5073041;28;20796;-65
2023/03/23 01:59:15;;;;;;;6.70;3.90;;;11.50;70.30;;;11.71;57.10;97302.34;5084274;28;20477;-71
2023/03/23 02:01:44;;;;;;;5.70;3.77;;;11.50;70.10;;;11.79;56.52;97298.44;5095887;27;20951;-64
2023/03/23 02:04:15;;;;;;;5.90;3.57;;;11.60;69.90;;;11.82;56.26;97301.47;5063191;28;20529;-66
2023/03/23 02:06:44;;;;;;;6.17;3.90;;;11.70;69.70;;;12.02;55.99;97302.94;5080472;28;20456;-69
2023/03/23 02:09:13;;;;;;;4.00;3.70;;;11.80;69.40;;;12.04;55.49;97290.81;5078063;28;20450;-67
2023/03/23 02:11:41;;;;;;;6.17;3.50;;;11.80;69.20;;;11.98;55.91;97285.53;5073994;28;20555;-65
2023/03/23 02:14:08;;;;;;;3.97;3.57;;;11.90;69.00;;;12.10;55.35;97285.50;5078242;28;20510;-67
2023/03/23 02:16:45;;;;;;;4.60;4.10;;;11.90;68.80;;;11.71;55.76;97221.16;5082151;28;20535;-66
2023/03/23 02:19:45;;;;;;;4.63;3.70;;;11.80;68.90;;;12.08;55.21;97258.69;5075372;28;20455;-68
2023/03/23 02:22:42;;;;;;;4.30;3.87;;;11.90;68.60;;;12.02;55.45;97271.31;5080992;28;20495;-69
2023/03/23 02:25:28;;;;;;;3.37;3.07;;;11.90;68.40;;;12.09;55.35;97275.72;5096948;28;20454;-67
2023/03/23 02:28:20;;;;;;;3.57;3.27;;;12.00;68.00;;;12.10;55.27;97261.13;5096001;28;20496;-65
2023/03/23 02:31:06;;;;;;;4.37;3.77;;;11.90;68.00;;;12.08;55.10;97253.28;5092058;28;20590;-70
2023/03/23 02:33:41;;;;;;;3.20;2.90;;;12.00;67.90;;;11.83;55.43;97245.44;5111774;27;20443;-67
2023/03/23 02:36:20;;;;;;;2.93;2.73;;;12.00;67.40;;;12.10;54.72;97253.84;5100542;28;20582;-67
2023/03/23 02:38:58;;;;;;;3.97;3.30;;;11.90;67.40;;;12.23;54.50;97249.19;5113559;27;20461;-67
2023/03/23 02:41:32;;;;;;;3.70;3.40;;;12.00;67.50;;;12.18;55.06;97258.84;5082869;28;20473;-67
2023/03/23 02:44:04;;;;;;;3.17;2.87;;;12.00;67.50;;;12.07;55.07;97250.78;5093581;28;20509;-66
2023/03/23 02:46:32;;;;;;;3.30;3.00;;;12.00;67.60;;;12.05;55.14;97248.31;5105671;27;20447;-66
2023/03/23 02:49:04;;;;;;;3.07;2.77;;;12.00;67.50;;;12.04;54.90;97246.69;5097236;28;20483;-69
2023/03/23 02:51:34;;;;;;;2.90;2.67;;;11.90;67.30;;;12.16;54.84;97244.72;5088879;28;20508;-66
2023/03/23 02:54:02;;;;;;;3.70;2.90;;;12.00;67.30;;;12.14;55.32;97254.97;5097751;28;20464;-68
2023/03/23 02:56:32;;;;;;;3.33;2.90;;;12.00;67.30;;;12.02;54.80;97248.81;5103862;27;20459;-66
2023/03/23 02:59:00;;;;;;;3.33;2.63;;;11.90;67.10;;;12.08;55.03;97250.56;5102737;27;20454;-67
2023/03/23 03:02:06;;;;;;;2.87;2.63;;;12.00;67.00;;;12.02;54.69;97229.84;5107635;27;20527;-68
2023/03/23 03:04:40;;;;;;;2.80;2.60;;;12.00;67.00;;;12.27;54.22;97255.75;5080472;28;20814;-69
2023/03/23 03:07:37;;;;;;;3.97;2.50;;;12.00;66.90;;;12.08;54.74;97247.84;5073989;28;20565;-67
2023/03/23 03:10:14;;;;;;;2.80;2.60;;;12.00;66.70;;;12.11;54.58;97247.34;5087437;28;20902;-66
2023/03/23 03:12:52;;;;;;;2.70;2.30;;;12.00;66.50;;;11.96;54.92;97245.16;5074956;28;20454;-69
2023/03/23 03:15:28;;;;;;;2.53;2.33;;;11.90;66.40;;;12.01;54.52;97239.00;5072589;28;20452;-68
2023/03/23 03:18:06;;;;;;;3.00;2.40;;;12.00;66.40;;;12.04;54.44;97252.09;5078959;28;20455;-69
2023/03/23 03:20:39;;;;;;;3.70;2.70;;;11.90;66.10;;;12.11;54.36;97236.53;5093899;28;20510;-68
2023/03/23 03:23:09;;;;;;;4.07;2.60;;;12.00;66.20;;;12.04;54.58;97242.09;5117566;27;20461;-68
2023/03/23 03:25:37;;;;;;;2.60;2.40;;;12.00;66.30;;;12.08;54.46;97231.59;5100364;28;20458;-68
2023/03/23 03:28:05;;;;;;;4.73;2.60;;;12.00;66.10;;;11.97;54.82;97233.25;5086244;28;20473;-68
2023/03/23 03:30:35;;;;;;;2.93;2.60;;;12.00;66.00;;;12.09;54.36;97225.13;5081762;28;20630;-68
2023/03/23 03:33:04;;;;;;;5.23;2.77;;;12.00;65.90;;;12.21;53.85;97226.91;5082742;28;20552;-68
2023/03/23 03:35:36;;;;;;;2.73;2.53;;;12.10;65.90;;;12.16;53.89;97233.91;5085413;28;20549;-68
2023/03/23 03:38:07;;;;;;;3.63;2.70;;;12.00;65.80;;;12.06;54.64;97222.91;5093393;28;20460;-68
2023/03/23 03:40:35;;;;;;;2.83;2.10;;;12.00;66.00;;;12.19;54.28;97225.28;5073051;28;20521;-69
2023/03/23 03:43:03;;;;;;;3.83;2.87;;;12.00;66.00;;;12.09;54.84;97225.13;5075557;28;20469;-69
2023/03/23 03:45:33;;;;;;;2.77;2.57;;;11.90;66.10;;;12.02;54.92;97221.75;5070755;28;20470;-69
2023/03/23 03:48:01;;;;;;;2.50;2.30;;;11.90;66.40;;;11.89;55.20;97207.41;5089882;27;20464;-68
2023/03/23 03:50:29;;;;;;;2.60;2.30;;;11.80;66.30;;;11.95;55.43;97237.28;5073590;28;20440;-69
2023/03/23 03:52:57;;;;;;;3.60;2.50;;;11.80;66.50;;;11.96;55.29;97228.09;5070895;28;20468;-70
2023/03/23 03:55:27;;;;;;;3.00;2.70;;;11.70;66.80;;;11.40;55.54;97159.22;5070263;28;20456;-69
2023/03/23 03:57:56;;;;;;;3.67;2.70;;;11.70;67.00;;;11.70;56.32;97219.53;5092149;28;20463;-70
2023/03/23 04:00:25;;;;;;;2.80;2.33;;;11.60;67.20;;;11.67;55.81;97230.84;5084902;27;20986;-72
2023/03/23 04:02:53;;;;;;;2.93;2.57;;;11.60;67.20;;;11.84;55.86;97226.28;5076441;28;20452;-70
2023/03/23 04:05:22;;;;;;;4.67;2.50;;;11.60;67.40;;;11.81;56.07;97231.34;5084155;27;20484;-70
2023/03/23 04:07:51;;;;;;;2.57;2.00;;;11.60;67.40;;;11.86;56.06;97228.75;5075014;28;20517;-71
2023/03/23 04:10:24;;;;;;;2.43;2.23;;;11.70;67.30;;;11.72;56.35;97217.38;5072672;28;20946;-72
2023/03/23 04:12:52;;;;;;;2.63;2.40;;;11.60;67.30;;;11.83;56.36;97219.22;5079427;28;20538;-71
2023/03/23 04:15:20;;;;;;;2.50;2.30;;;11.60;67.40;;;11.81;55.96;97229.47;5075394;28;20468;-70
2023/03/23 04:17:47;;;;;;;3.50;2.40;;;11.60;67.20;;;11.77;56.31;97222.91;5070803;28;20476;-71
2023/03/23 04:20:17;;;;;;;2.20;2.00;;;11.70;67.30;;;11.87;56.02;97220.38;5075790;28;20832;-70
2023/03/23 04:22:48;;;;;;;2.40;2.20;;;11.80;67.30;;;11.97;55.70;97219.72;5076833;28;20884;-69
2023/03/23 04:25:20;;;;;;;4.00;2.20;;;11.80;67.20;;;11.90;56.01;97221.78;5088889;28;20537;-71
2023/03/23 04:27:52;;;;;;;2.33;1.97;;;11.90;67.10;;;11.88;55.87;97227.44;5086603;28;20443;-72
2023/03/23 04:30:21;;;;;;;2.40;1.87;;;11.90;67.10;;;11.94;55.97;97230.25;5088122;28;20500;-71
2023/03/23 04:32:51;;;;;;;2.97;2.30;;;11.90;67.20;;;11.88;56.23;97230.13;5106969;28;20475;-71
2023/03/23 04:35:21;;;;;;;2.60;2.10;;;11.90;67.30;;;11.97;55.91;97225.13;5089466;28;20471;-71
2023/03/23 04:37:49;;;;;;;4.57;2.10;;;11.90;67.20;;;11.97;55.86;97230.56;5081110;28;20559;-71
2023/03/23 04:40:19;;;;;;;2.97;2.17;;;11.90;67.30;;;12.01;56.05;97226.34;5086348;28;20552;-70
2023/03/23 04:42:48;;;;;;;3.50;2.77;;;11.90;67.40;;;12.02;56.15;97229.84;5081061;28;20456;-70
2023/03/23 04:45:21;;;;;;;5.07;2.70;;;11.90;67.60;;;12.03;55.99;97217.97;5076638;28;20449;-70
2023/03/23 04:47:52;;;;;;;2.30;2.00;;;11.90;67.70;;;12.08;56.23;97219.94;5076730;28;20466;-70
2023/03/23 04:50:23;;;;;;;2.70;2.10;;;11.90;67.70;;;11.89;56.98;97220.94;5081372;28;20443;-71
2023/03/23 04:52:51;;;;;;;3.00;2.60;;;11.80;67.70;;;11.97;56.54;97218.91;5083101;28;20602;-71
2023/03/23 04:55:20;;;;;;;4.70;2.37;;;11.90;68.00;;;11.88;56.42;97227.44;5090435;28;20551;-72
2023/03/23 04:57:48;;;;;;;2.87;2.60;;;11.90;68.00;;;11.88;56.56;97227.44;5076004;28;20508;-72
2023/03/23 05:00:18;;;;;;;2.57;2.00;;;11.80;68.00;;;11.96;56.74;97228.09;5073934;28;20452;-71
2023/03/23 05:02:46;;;;;;;2.97;2.37;;;11.90;68.00;;;12.07;56.41;97235.38;5073364;28;20455;-71
2023/03/23 05:05:16;;;;;;;2.73;2.03;;;11.90;68.20;;;11.99;56.52;97233.88;5091499;28;20459;-70
2023/03/23 05:07:43;;;;;;;3.40;2.60;;;11.90;68.10;;;12.04;56.44;97227.72;5072551;28;20466;-71
2023/03/23 05:10:12;;;;;;;3.47;2.50;;;11.90;68.00;;;11.68;56.63;97172.94;5075027;28;20438;-71
2023/03/23 05:12:41;;;;;;;3.07;2.40;;;11.90;68.00;;;12.07;56.63;97229.13;5088584;28;20458;-72
2023/03/23 05:15:12;;;;;;;3.53;2.60;;;12.00;68.00;;;12.10;56.47;97221.34;5077052;28;20470;-71
2023/03/23 05:17:43;;;;;;;2.83;2.47;;;12.00;68.00;;;12.24;56.15;97210.19;5080676;28;20451;-70
2023/03/23 05:20:14;;;;;;;4.10;2.93;;;12.10;67.90;;;12.21;56.30;97213.38;5089047;28;20464;-72
2023/03/23 05:22:44;;;;;;;2.23;2.03;;;12.10;68.20;;;12.10;56.47;97224.06;5109803;27;20461;-70
2023/03/23 05:25:12;;;;;;;3.17;2.40;;;12.00;67.90;;;12.16;56.28;97212.22;5095619;28;20462;-71
2023/03/23 05:27:43;;;;;;;2.47;2.27;;;12.00;67.90;;;12.23;56.05;97213.97;5098102;28;20478;-72
2023/03/23 05:30:15;;;;;;;2.97;2.73;;;12.10;67.90;;;12.28;56.02;97208.63;5082333;28;20493;-71
2023/03/23 05:32:42;;;;;;;3.83;2.63;;;12.10;67.80;;;12.26;56.16;97205.34;5080367;28;20459;-72
2023/03/23 05:35:09;;;;;;;2.60;2.40;;;12.10;67.90;;;12.17;55.94;97213.88;5078234;28;20544;-72
2023/03/23 05:37:37;;;;;;;2.60;2.33;;;12.10;67.60;;;12.24;55.96;97210.19;5077186;28;20459;-71
2023/03/23 05:40:05;;;;;;;3.80;2.77;;;12.10;67.80;;;12.18;55.97;97215.50;5086649;28;20982;-70
2023/03/23 05:42:34;;;;;;;2.87;2.30;;;12.10;67.60;;;12.25;56.03;97207.22;5076997;28;20474;-69
2023/03/23 05:45:03;;;;;;;3.67;2.33;;;12.20;67.60;;;12.39;55.83;97209.59;5078451;28;20835;-69
2023/03/23 05:47:30;;;;;;;2.93;2.50;;;12.20;67.50;;;11.96;55.43;97142.28;5072501;28;20559;-68
2023/03/23 05:49:58;;;;;;;3.33;2.50;;;12.30;67.60;;;12.30;55.55;97211.91;5071665;28;20571;-70
2023/03/23 05:52:25;;;;;;;3.83;2.80;;;12.30;67.10;;;12.28;55.80;97208.63;5071210;28;20844;-70
2023/03/23 05:54:54;;;;;;;3.60;3.10;;;12.30;67.20;;;12.52;55.25;97203.84;5071515;28;20843;-70
2023/03/23 05:57:22;;;;;;;3.80;2.93;;;12.40;67.20;;;12.47;55.19;97201.88;5074586;28;21037;-69
2023/03/23 05:59:49;;;;;;;2.70;2.50;;;12.40;67.00;;;12.45;55.39;97203.22;5071829;28;20463;-70
2023/03/23 06:02:18;;;;;;;3.20;2.90;;;12.40;67.00;;;12.55;55.03;97213.38;5089502;28;21155;-71
2023/03/23 06:04:45;;;;;;;7.80;3.10;;;12.50;66.80;;;12.56;55.09;97223.16;5068482;28;20484;-68
2023/03/23 06:07:14;;;;;;;3.20;2.47;;;12.40;66.80;;;12.73;54.51;97221.25;5074357;28;21042;-68
2023/03/23 06:09:42;;;;;;;3.40;2.80;;;12.50;66.60;;;12.70;54.37;97221.75;5074676;28;20744;-67
2023/03/23 06:12:11;;;;;;;2.60;2.40;;;12.60;66.20;;;12.80;53.90;97214.81;5077436;28;20517;-69
2023/03/23 06:14:39;;;;;;;2.60;2.40;;;12.70;66.10;;;12.98;53.98;97230.81;5083097;28;21114;-68
2023/03/23 06:17:07;;;;;;;3.40;2.67;;;12.90;66.30;;;13.15;54.49;97221.81;5082079;28;20858;-68
2023/03/23 06:19:36;;;;;;;4.33;2.97;;;13.00;66.80;;;13.25;54.79;97216.50;5092333;27;20444;-68
2023/03/23 06:22:05;;;;;;;5.03;3.07;;;13.10;67.10;;;13.34;54.60;97216.88;5077753;28;20520;-69
2023/03/23 06:24:32;;;;;;;3.70;3.00;;;13.20;67.20;;;13.47;54.34;97221.13;5079805;28;20455;-68
2023/03/23 06:27:00;;;;;;;3.30;3.00;;;13.30;67.30;;;13.32;54.44;97222.56;5089340;28;20533;-68
2023/03/23 06:29:28;;;;;;;4.43;3.50;;;13.20;67.00;;;13.17;55.39;97225.88;5108088;27;20472;-69
2023/03/23 06:31:59;;;;;;;4.10;3.20;;;13.10;67.30;;;13.25;54.81;97232.75;5085420;28;20451;-69
2023/03/23 06:34:26;;;;;;;5.30;3.43;;;13.10;67.20;;;13.22;54.88;97230.56;5097916;28;20471;-69
2023/03/23 06:36:55;;;;;;;4.63;3.43;;;13.10;67.30;;;13.04;54.95;97221.66;5087721;28;20508;-68
2023/03/23 06:39:22;;;;;;;3.60;3.30;;;13.00;66.90;;;13.36;53.67;97232.91;5090863;28;20506;-69
2023/03/23 06:41:49;;;;;;;5.00;3.30;;;13.10;66.40;;;13.24;53.62;97233.84;5080975;28;20447;-67
2023/03/23 06:44:17;;;;;;;9.30;3.80;;;13.10;66.10;;;13.26;53.70;97236.31;5085700;28;20448;-68
2023/03/23 06:46:44;;;;;;;8.97;4.43;;;13.10;66.10;;;13.37;53.42;97237.25;5090766;28;20587;-68
2023/03/23 06:49:11;;;;;;;3.90;3.10;;;13.20;66.10;;;13.32;53.64;97236.13;5075385;28;20469;-68
2023/03/23 06:51:39;;;;;;;3.80;3.13;;;13.20;65.60;;;13.26;53.70;97237.13;5083464;28;20487;-68
2023/03/23 06:54:07;;;;;;;4.60;3.50;;;13.30;65.60;;;13.32;53.37;97236.13;5088315;28;20444;-69
2023/03/23 06:56:35;;;;;;;5.00;3.40;;;13.30;65.50;;;13.54;53.09;97246.16;5083521;28;20443;-68
2023/03/23 06:59:04;;;;;;;4.90;3.20;;;13.40;65.50;;;13.78;52.74;97226.91;5068862;28;20484;-67
2023/03/23 07:01:31;;;;;;;3.63;3.20;;;13.60;65.60;;;13.97;52.16;97235.50;5076501;28;21016;-68
2023/03/23 07:03:58;;;;;;;7.97;3.40;;;13.80;65.00;;;14.08;51.61;97228.28;5073156;28;20476;-70
2023/03/23 07:06:27;;;;;;;5.43;3.20;;;14.00;64.60;;;14.43;50.53;97231.56;5078489;28;20461;-67
2023/03/23 07:08:54;;;;;;;6.27;3.57;;;14.20;64.00;;;14.66;49.87;97233.09;5082041;28;20486;-67
2023/03/23 07:11:23;;;;;;;5.30;3.57;;;14.40;63.50;;;14.77;49.66;97238.59;5092726;28;20458;-68
2023/03/23 07:13:51;;;;;;;5.10;3.73;;;14.50;63.10;;;14.87;49.28;97234.06;5085652;28;20448;-69
2023/03/23 07:16:18;;;;;;;6.83;3.80;;;14.70;62.70;;;15.00;48.60;97185.72;5097431;28;20462;-67
2023/03/23 07:18:47;;;;;;;4.43;3.93;;;14.90;62.60;;;15.05;49.01;97240.16;5082033;28;20954;-68
2023/03/23 07:21:15;;;;;;;5.20;3.40;;;14.90;62.00;;;15.00;48.92;97240.94;5079547;28;20463;-69
2023/03/23 07:23:42;;;;;;;5.53;4.20;;;14.90;62.00;;;14.79;49.24;97245.44;5087711;28;20478;-67
2023/03/23 07:26:09;;;;;;;4.50;3.73;;;14.90;61.70;;;15.04;50.40;97251.28;5086101;28;20451;-68
2023/03/23 07:28:39;;;;;;;5.70;3.90;;;14.80;62.90;;;15.28;48.60;97260.69;5083815;28;20461;-69
2023/03/23 07:31:08;;;;;;;4.07;3.67;;;15.00;61.90;;;15.13;49.01;97257.88;5087655;28;20588;-67
2023/03/23 07:33:36;;;;;;;5.50;4.20;;;14.90;62.00;;;14.80;49.83;97259.84;5085039;28;20473;-69
2023/03/23 07:36:04;;;;;;;8.80;4.77;;;14.80;61.80;;;15.05;50.37;97264.63;5082762;28;21010;-69
2023/03/23 07:38:31;;;;;;;5.70;3.77;;;14.80;63.30;;;14.54;50.33;97263.16;5089904;28;20456;-67
2023/03/23 07:40:58;;;;;;;8.20;4.43;;;14.60;61.90;;;14.53;50.75;97261.50;5094608;27;20465;-68
2023/03/23 07:43:26;;;;;;;5.83;4.03;;;14.50;62.40;;;14.49;50.58;97259.59;5080829;28;20495;-68
2023/03/23 07:45:55;;;;;;;5.50;4.37;;;14.50;62.20;;;14.27;50.64;97250.44;5076648;28;20540;-67
2023/03/23 07:48:23;;;;;;;5.90;4.50;;;14.40;62.10;;;14.66;50.19;97267.59;5073127;28;20585;-67
2023/03/23 07:50:50;;;;;;;5.17;4.67;;;14.50;62.40;;;14.71;50.99;97267.66;5067133;28;20564;-67
2023/03/23 07:53:17;;;;;;;4.90;4.30;;;14.60;62.90;;;14.78;51.26;97262.00;5077043;28;20949;-68
2023/03/23 07:55:44;;;;;;;4.90;4.40;;;14.70;63.30;;;14.81;51.63;97272.38;5082064;28;20469;-67
2023/03/23 07:58:16;;;;;;;8.30;3.80;;;14.70;63.60;;;15.06;51.21;97265.44;5078325;28;20501;-67
2023/03/23 08:00:44;;;;;;;5.20;4.30;;;14.80;63.80;;;15.09;52.05;97260.31;5076727;28;20543;-68
2023/03/23 08:03:13;;;;;;;6.87;4.60;;;14.90;64.40;;;15.22;52.02;97271.81;5094205;27;20442;-67
2023/03/23 08:05:41;;;;;;;6.23;3.80;;;15.00;64.50;;;15.37;52.85;97268.31;5084018;28;20514;-67
2023/03/23 08:08:10;;;;;;;10.57;4.93;;;15.10;66.00;;;15.29;53.14;97275.91;5083640;28;20810;-66
2023/03/23 08:10:38;;;;;;;6.00;4.20;;;15.10;66.30;;;15.29;53.34;97275.91;5077509;28;20962;-69
2023/03/23 08:13:06;;;;;;;6.47;4.50;;;15.10;66.70;;;15.29;53.55;97278.66;5091673;28;20890;-67
2023/03/23 08:15:36;;;;;;;4.83;4.40;;;15.10;66.90;;;15.18;53.46;97279.66;5077491;28;20454;-67
2023/03/23 08:18:05;;;;;;;7.10;4.50;;;15.10;66.70;;;15.23;53.06;97278.88;5082429;28;20957;-69
2023/03/23 08:20:33;;;;;;;8.13;4.63;;;15.00;66.70;;;15.08;55.19;97293.19;5070502;28;20453;-68
2023/03/23 08:23:03;;;;;;;6.30;4.70;;;14.90;67.90;;;14.94;54.20;97287.41;5081610;28;20553;-67
2023/03/23 08:25:32;;;;;;;7.90;5.00;;;14.80;67.40;;;14.37;54.56;97227.97;5081209;28;20452;-67
2023/03/23 08:28:01;;;;;;;5.30;4.30;;;14.70;67.50;;;14.83;54.79;97289.25;5091466;28;20468;-69
2023/03/23 08:30:32;;;;;;;5.43;4.63;;;14.70;67.90;;;14.78;54.16;97278.31;5081847;28;20961;-67
2023/03/23 08:33:01;;;;;;;8.07;5.07;;;14.70;67.80;;;14.67;54.90;97289.09;5082415;28;20744;-66
2023/03/23 08:35:29;;;;;;;4.93;4.43;;;14.60;68.40;;;14.73;55.83;97292.72;5095441;28;20472;-68
2023/03/23 08:37:57;;;;;;;6.60;4.20;;;14.50;68.80;;;14.74;56.14;97302.50;5090003;28;20528;-67
2023/03/23 08:40:26;;;;;;;7.50;4.50;;;14.50;69.30;;;14.68;55.51;97255.41;5080281;28;20468;-68
2023/03/23 08:42:54;;;;;;;7.33;4.50;;;14.50;69.20;;;14.96;54.98;97299.66;5077946;28;20496;-68
2023/03/23 08:45:26;;;;;;;5.37;4.97;;;14.70;69.00;;;14.98;54.83;97302.94;5085964;28;20455;-69
2023/03/23 08:47:55;;;;;;;6.57;5.27;;;14.60;68.50;;;14.98;54.47;97297.50;5085387;28;20459;-70
2023/03/23 08:50:28;;;;;;;5.90;4.80;;;14.70;68.50;;;15.23;54.76;97290.56;5089366;28;20989;-70
2023/03/23 08:52:56;;;;;;;5.80;5.00;;;14.80;68.90;;;15.15;54.47;97304.69;5090421;28;20454;-68
2023/03/23 08:55:24;;;;;;;5.47;4.70;;;14.80;68.20;;;15.35;53.91;97293.09;5087728;28;21225;-69
2023/03/23 08:57:51;;;;;;;6.43;5.10;;;14.90;68.60;;;15.60;53.46;97310.63;5080838;28;20439;-70
2023/03/23 09:00:24;;;;;;;8.80;4.80;;;15.10;68.30;;;15.55;53.77;97314.16;5086655;28;20499;-68
2023/03/23 09:02:54;;;;;;;6.33;4.63;;;15.20;68.20;;;15.54;53.87;97317.13;5096066;28;20501;-69
2023/03/23 09:05:26;;;;;;;7.33;5.00;;;15.20;68.60;;;15.56;53.79;97310.34;5083749;28;20457;-69
2023/03/23 09:07:59;;;;;;;5.03;4.63;;;15.20;68.50;;;15.57;53.90;97316.59;5084799;28;20837;-68
2023/03/23 09:10:30;;;;;;;7.97;4.83;;;15.20;68.20;;;15.51;53.56;97323.13;5082106;28;20509;-68
2023/03/23 09:12:59;;;;;;;6.40;4.70;;;15.30;68.00;;;15.62;54.05;97323.97;5080822;28;20462;-68
2023/03/23 09:15:27;;;;;;;8.53;4.70;;;15.40;68.70;;;15.85;53.07;97318.09;5089062;28;20481;-68
2023/03/23 09:17:56;;;;;;;5.30;4.80;;;15.40;68.10;;;16.04;53.09;97320.34;5084996;28;20559;-67
2023/03/23 09:20:26;;;;;;;7.63;5.50;;;15.70;68.20;;;16.13;52.54;97323.38;5094851;28;20456;-69
2023/03/23 09:22:57;;;;;;;6.57;5.83;;;15.70;67.50;;;16.20;52.04;97328.56;5084334;28;20539;-69
2023/03/23 09:25:28;;;;;;;7.00;5.23;;;15.90;67.10;;;16.34;52.61;97317.97;5088605;28;20537;-70
2023/03/23 09:27:58;;;;;;;7.03;5.07;;;16.00;67.50;;;16.42;51.57;97329.16;5092082;28;20447;-70
2023/03/23 09:30:30;;;;;;;5.70;5.10;;;16.00;66.80;;;16.48;51.09;97326.44;5089633;28;20549;-70
2023/03/23 09:33:00;;;;;;;5.83;4.53;;;16.10;66.00;;;16.36;51.57;97324.78;5085118;28;20458;-75
2023/03/23 09:35:28;;;;;;;8.80;4.03;;;16.10;65.80;;;16.40;50.06;97284.97;5090331;28;20531;-69
2023/03/23 09:37:56;;;;;;;4.93;4.43;;;16.30;64.60;;;17.05;48.88;97327.28;5093101;28;20451;-69
2023/03/23 09:40:30;;;;;;;4.47;4.10;;;16.50;64.60;;;17.33;47.76;97337.88;5078541;28;20458;-69
2023/03/23 09:43:14;;;;;;;3.80;3.43;;;16.70;63.60;;;17.18;47.45;97342.28;5077276;28;20514;-68
2023/03/23 09:45:54;;;;;;;5.60;4.13;;;16.80;62.80;;;17.24;47.28;97340.34;5079009;28;20459;-70
2023/03/23 09:48:52;;;;;;;5.93;4.50;;;16.80;62.70;;;17.15;48.01;97336.56;5071963;28;20960;-68
2023/03/23 09:51:33;;;;;;;4.20;3.80;;;17.00;62.80;;;17.33;48.09;97337.88;4999509;28;20982;-68
2023/03/23 09:54:07;;;;;;;4.40;3.77;;;16.90;63.00;;;17.05;48.15;97337.38;5074594;28;21002;-68
2023/03/23 09:56:36;;;;;;;10.37;4.10;;;16.90;62.20;;;17.54;46.71;97331.28;5088388;28;20489;-67
2023/03/23 09:59:14;;;;;;;6.07;5.00;;;17.10;61.60;;;17.23;47.39;97339.56;5081705;28;20458;-68
2023/03/23 10:01:46;;;;;;;4.67;3.77;;;17.00;61.50;;;16.84;47.85;97335.47;5080157;28;20454;-67
2023/03/23 10:04:23;;;;;;;7.40;4.50;;;16.80;61.40;;;17.18;47.11;97347.72;5084809;28;20456;-67
2023/03/23 10:06:50;;;;;;;4.70;4.20;;;16.90;61.20;;;16.75;48.35;97355.34;5083420;28;20479;-68
2023/03/23 10:09:20;;;;;;;5.93;3.47;;;16.80;61.20;;;16.53;48.54;97349.09;5090821;28;20450;-68
2023/03/23 10:12:03;;;;;;;5.30;3.80;;;16.50;61.30;;;16.81;47.76;97348.81;5082538;28;20601;-70
2023/03/23 10:14:46;;;;;;;4.53;3.07;;;16.60;61.30;;;16.82;48.77;97350.47;5092125;27;20576;-68
2023/03/23 10:17:19;;;;;;;5.40;3.83;;;16.60;61.80;;;16.37;49.15;97359.13;5077172;28;21015;-68
2023/03/23 10:19:53;;;;;;;8.90;3.93;;;16.30;61.60;;;16.47;49.19;97357.53;5084772;28;20970;-67
2023/03/23 10:22:29;;;;;;;3.80;3.50;;;16.40;61.60;;;16.65;48.68;97367.91;5078098;28;20463;-68
2023/03/23 10:25:05;;;;;;;7.03;4.10;;;16.40;61.80;;;16.85;49.03;97364.38;5080273;28;20832;-68
2023/03/23 10:27:39;;;;;;;7.70;4.50;;;16.60;62.30;;;16.33;49.41;97325.34;5090374;28;20448;-68
2023/03/23 10:30:18;;;;;;;5.47;3.60;;;16.40;62.40;;;16.56;49.61;97364.91;5104674;27;20500;-69
2023/03/23 10:32:53;;;;;;;4.97;3.33;;;16.40;62.40;;;16.37;49.43;97371.94;5081086;28;20464;-68
2023/03/23 10:35:27;;;;;;;4.73;3.10;;;16.20;62.10;;;16.08;50.61;97375.94;5073205;28;20458;-69